createdAt,value
2018-07-27T00:02:09.023Z,13.20
2018-07-27T00:04:37.704Z,13.43
2018-07-27T00:07:06.400Z,12.90
2018-07-27T00:09:35.036Z,14.10
2018-07-27T00:12:04.317Z,13.87
2018-07-27T00:14:32.976Z,14.80
2018-07-27T00:17:01.605Z,14.93
2018-07-27T00:19:30.296Z,15.00
2018-07-27T00:21:58.942Z,14.87
2018-07-27T00:24:27.907Z,14.50
2018-07-27T00:26:56.564Z,14.60
2018-07-27T00:29:25.240Z,15.17
2018-07-27T00:31:53.884Z,14.97
2018-07-27T00:34:24.216Z,15.33
2018-07-27T00:36:52.856Z,14.97
2018-07-27T00:39:21.468Z,15.33
2018-07-27T00:41:50.281Z,14.60
2018-07-27T00:44:18.976Z,14.70
2018-07-27T00:46:47.631Z,13.70
2018-07-27T00:49:16.258Z,15.43
2018-07-27T00:51:44.883Z,14.87
2018-07-27T00:54:13.476Z,14.70
2018-07-27T00:56:42.144Z,14.50
2018-07-27T00:59:10.812Z,14.20
2018-07-27T01:01:39.453Z,14.47
2018-07-27T01:04:08.229Z,14.23
2018-07-27T01:06:36.844Z,13.83
2018-07-27T01:09:08.360Z,14.53
2018-07-27T01:11:37.008Z,14.43
2018-07-27T01:14:05.972Z,15.53
2018-07-27T01:16:34.724Z,16.03
2018-07-27T01:19:03.923Z,15.50
2018-07-27T01:21:32.693Z,15.50
2018-07-27T01:24:01.354Z,15.90
2018-07-27T01:26:30.075Z,14.60
2018-07-27T01:28:58.700Z,15.47
2018-07-27T01:31:27.404Z,15.17
2018-07-27T01:33:56.045Z,15.47
2018-07-27T01:36:24.651Z,14.93
2018-07-27T01:38:53.275Z,16.20
2018-07-27T01:41:21.911Z,15.53
2018-07-27T01:43:50.551Z,16.10
2018-07-27T01:46:19.172Z,15.40
2018-07-27T01:48:47.839Z,16.00
2018-07-27T01:51:16.480Z,15.83
2018-07-27T01:53:45.135Z,15.83
2018-07-27T01:56:13.845Z,16.40
2018-07-27T01:58:43.347Z,17.00
2018-07-27T02:01:12.740Z,16.43
2018-07-27T02:03:41.390Z,16.33
2018-07-27T02:06:10.032Z,15.20
2018-07-27T02:08:38.686Z,15.33
2018-07-27T02:11:07.287Z,15.73
2018-07-27T02:13:36.005Z,16.00
2018-07-27T02:16:04.752Z,15.03
2018-07-27T02:18:33.441Z,16.73
2018-07-27T02:21:02.148Z,16.13
2018-07-27T02:23:31.054Z,15.63
2018-07-27T02:25:59.716Z,15.27
2018-07-27T02:28:28.311Z,16.30
2018-07-27T02:30:56.951Z,16.57
2018-07-27T02:33:25.828Z,15.43
2018-07-27T02:35:54.492Z,16.37
2018-07-27T02:38:23.171Z,15.53
2018-07-27T02:40:51.813Z,16.73
2018-07-27T02:43:20.488Z,16.63
2018-07-27T02:45:49.168Z,15.80
2018-07-27T02:48:17.776Z,15.93
2018-07-27T02:50:48.385Z,16.93
2018-07-27T02:53:17.672Z,15.50
2018-07-27T02:55:46.299Z,15.60
2018-07-27T02:58:14.959Z,14.13
2018-07-27T03:00:43.600Z,14.87
2018-07-27T03:03:12.591Z,15.57
2018-07-27T03:05:42.472Z,15.20
2018-07-27T03:08:11.111Z,17.60
2018-07-27T03:10:44.932Z,16.43
2018-07-27T03:13:13.539Z,16.27
2018-07-27T03:15:42.190Z,15.37
2018-07-27T03:18:10.824Z,15.10
2018-07-27T03:20:39.468Z,15.40
2018-07-27T03:23:08.092Z,15.20
2018-07-27T03:25:36.704Z,15.43
2018-07-27T03:28:05.379Z,16.10
2018-07-27T03:30:34.076Z,16.03
2018-07-27T03:33:02.694Z,16.57
2018-07-27T03:35:31.359Z,16.30
2018-07-27T03:37:59.975Z,15.00
2018-07-27T03:40:28.615Z,15.97
2018-07-27T03:42:57.256Z,15.37
2018-07-27T03:45:25.855Z,15.13
2018-07-27T03:47:54.464Z,14.87
2018-07-27T03:50:23.159Z,15.97
2018-07-27T03:52:51.810Z,16.93
2018-07-27T03:55:20.443Z,15.97
2018-07-27T03:57:49.096Z,15.27
2018-07-27T04:00:17.756Z,15.93
2018-07-27T04:02:46.426Z,17.10
2018-07-27T04:05:15.069Z,17.03
2018-07-27T04:07:43.712Z,15.47
2018-07-27T04:10:12.355Z,16.33
2018-07-27T04:12:42.139Z,15.27
2018-07-27T04:15:11.608Z,16.13
2018-07-27T04:17:44.599Z,16.67
2018-07-27T04:20:13.559Z,15.17
2018-07-27T04:22:42.191Z,15.50
2018-07-27T04:25:10.845Z,15.73
2018-07-27T04:27:39.464Z,16.30
2018-07-27T04:30:08.133Z,17.27
2018-07-27T04:32:36.799Z,15.03
2018-07-27T04:35:05.420Z,15.17
2018-07-27T04:37:34.039Z,15.90
2018-07-27T04:40:02.672Z,17.73
2018-07-27T04:42:31.329Z,15.77
2018-07-27T04:44:59.953Z,16.20
2018-07-27T04:47:28.600Z,15.77
2018-07-27T04:49:57.244Z,16.90
2018-07-27T04:52:25.864Z,17.57
2018-07-27T04:54:54.575Z,16.80
2018-07-27T04:57:23.219Z,16.60
2018-07-27T04:59:51.842Z,15.77
2018-07-27T05:02:20.474Z,14.90
2018-07-27T05:04:49.339Z,15.50
2018-07-27T05:07:18.031Z,16.00
2018-07-27T05:09:46.711Z,15.60
2018-07-27T05:12:15.336Z,15.13
2018-07-27T05:14:44.004Z,18.37
2018-07-27T05:17:12.695Z,20.83
2018-07-27T05:19:41.344Z,23.60
2018-07-27T05:22:10.014Z,18.53
2018-07-27T05:24:38.752Z,18.77
2018-07-27T05:27:07.420Z,19.17
2018-07-27T05:29:36.055Z,20.23
2018-07-27T05:32:04.699Z,20.27
2018-07-27T05:34:33.393Z,21.20
2018-07-27T05:37:02.054Z,20.47
2018-07-27T05:39:30.681Z,19.90
2018-07-27T05:41:59.349Z,20.57
2018-07-27T05:44:27.992Z,18.23
2018-07-27T05:46:56.853Z,20.00
2018-07-27T05:49:25.679Z,17.07
2018-07-27T05:51:53.953Z,17.27
2018-07-27T05:54:22.582Z,16.80
2018-07-27T05:56:51.215Z,16.57
2018-07-27T05:59:19.889Z,18.43
2018-07-27T06:01:48.506Z,18.03
2018-07-27T06:04:16.791Z,16.37
2018-07-27T06:06:45.455Z,17.03
2018-07-27T06:09:14.100Z,16.47
2018-07-27T06:11:42.756Z,14.80
2018-07-27T06:14:11.392Z,15.80
2018-07-27T06:16:40.080Z,14.37
2018-07-27T06:19:12.075Z,15.83
2018-07-27T06:21:41.299Z,15.63
2018-07-27T06:24:09.996Z,15.10
2018-07-27T06:26:38.612Z,14.60
2018-07-27T06:29:07.353Z,14.83
2018-07-27T06:31:35.979Z,14.13
2018-07-27T06:34:19.638Z,14.23
2018-07-27T06:36:48.300Z,14.43
2018-07-27T06:39:17.013Z,14.50
2018-07-27T06:41:45.694Z,14.37
2018-07-27T06:44:14.367Z,14.80
2018-07-27T06:46:43.056Z,13.70
2018-07-27T06:49:11.884Z,14.13
2018-07-27T06:51:40.587Z,14.90
2018-07-27T06:54:09.213Z,12.97
2018-07-27T06:56:37.874Z,14.07
2018-07-27T06:59:06.662Z,14.67
2018-07-27T07:01:35.300Z,13.53
2018-07-27T07:04:03.948Z,12.82
2018-07-27T07:06:32.598Z,12.98
2018-07-27T07:09:01.282Z,13.48
2018-07-27T07:11:29.957Z,14.03
2018-07-27T07:13:58.636Z,12.68
2018-07-27T07:16:27.268Z,11.68
2018-07-27T07:18:55.924Z,13.08
2018-07-27T07:21:24.629Z,12.47
2018-07-27T07:23:53.268Z,11.25
2018-07-27T07:26:22.029Z,11.80
2018-07-27T07:28:50.676Z,11.83
2018-07-27T07:31:19.964Z,11.83
2018-07-27T07:33:48.845Z,12.43
2018-07-27T07:36:17.729Z,11.57
2018-07-27T07:38:46.565Z,12.63
2018-07-27T07:41:15.216Z,11.78
2018-07-27T07:43:43.902Z,12.63
2018-07-27T07:46:12.563Z,11.15
2018-07-27T07:48:41.193Z,10.95
2018-07-27T07:51:09.945Z,9.60
2018-07-27T07:53:38.588Z,10.55
2018-07-27T07:56:07.228Z,9.58
2018-07-27T07:58:35.947Z,8.93
2018-07-27T08:01:04.611Z,8.85
2018-07-27T08:03:33.231Z,8.10
2018-07-27T08:06:01.898Z,7.28
2018-07-27T08:08:30.560Z,5.47
2018-07-27T08:10:59.204Z,5.55
2018-07-27T08:13:27.483Z,5.90
2018-07-27T08:15:56.103Z,6.03
2018-07-27T08:18:24.780Z,7.35
2018-07-27T08:20:53.410Z,7.28
2018-07-27T08:23:22.039Z,7.33
2018-07-27T08:26:57.815Z,6.87
2018-07-27T08:29:27.859Z,7.05
2018-07-27T08:31:56.965Z,7.72
2018-07-27T08:34:25.615Z,8.30
2018-07-27T08:36:54.316Z,9.53
2018-07-27T08:39:27.987Z,7.33
2018-07-27T08:41:56.759Z,7.53
2018-07-27T08:44:27.525Z,7.87
2018-07-27T08:46:56.217Z,7.17
2018-07-27T08:49:24.922Z,7.90
2018-07-27T08:51:53.555Z,7.75
2018-07-27T08:54:22.250Z,8.08
2018-07-27T08:56:50.949Z,9.05
2018-07-27T08:59:19.607Z,8.03
2018-07-27T09:01:48.261Z,6.85
2018-07-27T09:04:16.924Z,7.60
2018-07-27T09:06:45.591Z,7.40
2018-07-27T09:09:15.614Z,7.72
2018-07-27T09:11:44.299Z,7.55
2018-07-27T09:14:13.004Z,7.05
2018-07-27T09:16:41.647Z,7.87
2018-07-27T09:19:10.392Z,8.80
2018-07-27T09:21:39.182Z,12.10
2018-07-27T09:24:07.863Z,8.15
2018-07-27T09:26:36.505Z,6.83
2018-07-27T09:29:05.168Z,7.95
2018-07-27T09:31:33.846Z,7.30
2018-07-27T09:34:02.541Z,8.15
2018-07-27T09:36:31.183Z,7.95
2018-07-27T09:38:59.823Z,7.03
2018-07-27T09:41:28.453Z,7.67
2018-07-27T09:43:57.104Z,5.87
2018-07-27T09:46:25.832Z,6.40
2018-07-27T09:48:54.909Z,6.28
2018-07-27T09:51:24.586Z,7.62
2018-07-27T09:53:53.288Z,7.28
2018-07-27T09:56:21.952Z,6.78
2018-07-27T09:58:50.592Z,7.05
2018-07-27T10:01:28.330Z,7.05
2018-07-27T10:03:57.180Z,7.72
2018-07-27T10:06:25.830Z,7.08
2018-07-27T10:08:54.523Z,11.38
2018-07-27T10:11:23.224Z,8.45
2018-07-27T10:13:51.859Z,7.20
2018-07-27T10:16:20.536Z,8.20
2018-07-27T10:18:49.208Z,9.68
2018-07-27T10:21:17.841Z,8.33
2018-07-27T10:23:46.497Z,7.35
2018-07-27T10:26:15.138Z,7.67
2018-07-27T10:28:43.766Z,8.10
2018-07-27T10:31:12.506Z,7.85
2018-07-27T10:33:41.144Z,8.90
2018-07-27T10:36:09.841Z,6.95
2018-07-27T10:38:38.559Z,8.75
2018-07-27T10:41:07.389Z,7.80
2018-07-27T10:43:36.063Z,7.45
2018-07-27T10:46:05.523Z,6.75
2018-07-27T10:48:34.167Z,7.37
2018-07-27T10:51:02.829Z,7.50
2018-07-27T10:53:31.476Z,7.60
2018-07-27T10:56:00.108Z,7.15
2018-07-27T10:58:28.728Z,8.95
2018-07-27T11:00:57.384Z,7.45
2018-07-27T11:03:26.046Z,11.12
2018-07-27T11:05:54.845Z,7.35
2018-07-27T11:08:23.508Z,8.53
2018-07-27T11:10:52.151Z,8.43
2018-07-27T11:13:20.872Z,7.80
2018-07-27T11:15:49.496Z,9.60
2018-07-27T11:18:18.136Z,8.28
2018-07-27T11:20:46.807Z,7.85
2018-07-27T11:23:15.435Z,8.78
2018-07-27T11:25:44.069Z,7.50
2018-07-27T11:28:12.701Z,9.15
2018-07-27T11:30:41.312Z,7.40
2018-07-27T11:33:09.979Z,6.33
2018-07-27T11:35:38.621Z,7.05
2018-07-27T11:38:07.288Z,6.37
2018-07-27T11:40:36.107Z,6.47
2018-07-27T11:43:04.863Z,6.50
2018-07-27T11:45:33.498Z,6.30
2018-07-27T11:48:02.156Z,7.08
2018-07-27T11:50:30.876Z,8.13
2018-07-27T11:52:59.565Z,6.60
2018-07-27T11:55:28.249Z,6.90
2018-07-27T11:57:56.888Z,6.00
2018-07-27T12:00:25.680Z,5.78
2018-07-27T12:02:54.355Z,7.22
2018-07-27T12:05:23.008Z,6.33
2018-07-27T12:07:51.673Z,5.87
2018-07-27T12:10:20.325Z,4.28
2018-07-27T12:12:48.955Z,5.28
2018-07-27T12:15:17.721Z,4.13
2018-07-27T12:17:48.003Z,7.47
2018-07-27T12:20:16.661Z,4.55
2018-07-27T12:22:45.327Z,4.87
2018-07-27T12:25:13.978Z,5.17
2018-07-27T12:27:42.780Z,4.42
2018-07-27T12:30:11.989Z,4.42
2018-07-27T12:32:40.678Z,4.70
2018-07-27T12:35:09.379Z,3.92
2018-07-27T12:37:38.012Z,5.20
2018-07-27T12:40:06.678Z,6.90
2018-07-27T12:42:35.409Z,4.35
2018-07-27T12:45:04.273Z,4.17
2018-07-27T12:47:33.001Z,4.00
2018-07-27T12:50:01.632Z,4.20
2018-07-27T12:52:30.259Z,4.53
2018-07-27T12:54:58.957Z,7.03
2018-07-27T12:57:27.604Z,4.75
2018-07-27T12:59:56.236Z,6.78
2018-07-27T13:02:24.914Z,4.78
2018-07-27T13:04:53.594Z,5.83
2018-07-27T13:07:22.236Z,5.12
2018-07-27T13:09:55.280Z,5.00
2018-07-27T13:12:24.064Z,5.80
2018-07-27T13:14:52.755Z,5.03
2018-07-27T13:17:21.453Z,5.37
2018-07-27T13:19:50.081Z,5.25
2018-07-27T13:22:19.344Z,6.67
2018-07-27T13:27:16.714Z,5.90
2018-07-27T13:29:45.359Z,5.72
2018-07-27T13:32:14.056Z,6.50
2018-07-27T13:37:16.362Z,5.10
2018-07-27T13:39:45.853Z,5.60
2018-07-27T13:42:17.887Z,7.37
2018-07-27T13:44:46.952Z,4.75
2018-07-27T13:47:16.196Z,5.08
2018-07-27T13:49:44.894Z,5.08
2018-07-27T13:52:13.619Z,6.85
2018-07-27T13:54:42.286Z,7.47
2018-07-27T13:57:10.944Z,4.85
2018-07-27T13:59:39.638Z,4.70
2018-07-27T14:02:08.680Z,5.95
2018-07-27T14:04:37.423Z,6.92
2018-07-27T14:07:06.953Z,6.65
2018-07-27T14:09:35.599Z,4.17
2018-07-27T14:12:04.396Z,7.90
2018-07-27T14:14:33.099Z,6.72
2018-07-27T14:17:01.788Z,5.75
2018-07-27T14:19:31.336Z,5.35
2018-07-27T14:21:59.996Z,5.70
2018-07-27T14:24:28.661Z,7.33
2018-07-27T14:26:57.327Z,5.00
2018-07-27T14:29:25.976Z,4.97
2018-07-27T14:31:54.609Z,5.28
2018-07-27T14:34:23.264Z,6.35
2018-07-27T14:36:51.936Z,5.70
2018-07-27T14:39:20.577Z,5.20
2018-07-27T14:41:49.284Z,7.65
2018-07-27T14:44:17.929Z,6.05
2018-07-27T14:46:46.563Z,7.50
2018-07-27T14:49:16.367Z,5.58
2018-07-27T14:51:45.037Z,6.15
2018-07-27T14:54:14.553Z,6.95
2018-07-27T14:56:43.477Z,6.50
2018-07-27T14:59:12.372Z,5.28
2018-07-27T15:01:41.339Z,7.00
2018-07-27T15:04:10.621Z,7.40
2018-07-27T15:06:39.504Z,5.27
2018-07-27T15:09:13.735Z,7.15
2018-07-27T15:11:43.136Z,6.58
2018-07-27T15:14:11.745Z,7.75
2018-07-27T15:16:40.431Z,5.83
2018-07-27T15:19:09.055Z,7.72
2018-07-27T15:21:37.680Z,6.55
2018-07-27T15:24:06.356Z,7.85
2018-07-27T15:26:35.572Z,11.10
2018-07-27T15:29:04.364Z,6.10
2018-07-27T15:31:33.778Z,6.22
2018-07-27T15:34:02.395Z,5.95
2018-07-27T15:36:31.101Z,6.83
2018-07-27T15:38:59.748Z,8.80
2018-07-27T15:41:28.400Z,6.53
2018-07-27T15:43:57.015Z,7.92
2018-07-27T15:46:25.636Z,9.70
2018-07-27T15:48:54.234Z,7.22
2018-07-27T15:51:22.844Z,6.70
2018-07-27T15:53:51.458Z,6.53
2018-07-27T15:56:20.125Z,6.50
2018-07-27T15:58:48.820Z,8.78
2018-07-27T16:01:17.448Z,7.35
2018-07-27T16:03:46.297Z,8.33
2018-07-27T16:06:14.969Z,7.00
2018-07-27T16:08:43.654Z,7.47
2018-07-27T16:11:12.330Z,6.97
2018-07-27T16:13:40.975Z,8.70
2018-07-27T16:16:09.670Z,8.65
2018-07-27T16:18:38.276Z,8.53
2018-07-27T16:21:07.368Z,7.35
2018-07-27T16:23:35.975Z,6.87
2018-07-27T16:26:04.624Z,9.58
2018-07-27T16:28:33.274Z,6.70
2018-07-27T16:31:01.894Z,6.50
2018-07-27T16:33:30.495Z,10.30
2018-07-27T16:35:59.134Z,6.45
2018-07-27T16:38:27.792Z,6.97
2018-07-27T16:40:56.450Z,6.25
2018-07-27T16:43:25.088Z,5.83
2018-07-27T16:45:53.698Z,6.25
2018-07-27T16:48:22.308Z,5.63
2018-07-27T16:50:50.940Z,6.92
2018-07-27T16:53:19.553Z,6.05
2018-07-27T16:55:48.176Z,9.93
2018-07-27T16:58:16.812Z,6.00
2018-07-27T17:00:45.447Z,5.97
2018-07-27T17:03:14.081Z,6.53
2018-07-27T17:05:42.727Z,5.80
2018-07-27T17:08:11.356Z,7.23
2018-07-27T17:10:39.635Z,8.03
2018-07-27T17:13:08.311Z,5.40
2018-07-27T17:15:36.916Z,5.70
2018-07-27T17:18:05.711Z,6.20
2018-07-27T17:20:34.340Z,6.13
2018-07-27T17:23:03.069Z,5.53
2018-07-27T17:25:31.764Z,7.53
2018-07-27T17:28:00.398Z,5.53
2018-07-27T17:30:29.031Z,6.03
2018-07-27T17:32:57.697Z,5.43
2018-07-27T17:35:26.404Z,9.70
2018-07-27T17:37:55.015Z,7.50
2018-07-27T17:40:23.680Z,9.10
2018-07-27T17:42:52.322Z,5.03
2018-07-27T17:45:20.956Z,8.13
2018-07-27T17:47:49.589Z,5.67
2018-07-27T17:50:18.238Z,5.90
2018-07-27T17:52:46.863Z,5.33
2018-07-27T17:55:15.187Z,9.33
2018-07-27T17:57:43.804Z,5.73
2018-07-27T18:00:12.568Z,5.67
2018-07-27T18:02:41.212Z,7.37
2018-07-27T18:05:10.012Z,6.97
2018-07-27T18:07:38.668Z,6.03
2018-07-27T18:10:07.348Z,7.53
2018-07-27T18:12:36.001Z,6.47
2018-07-27T18:15:04.939Z,6.13
2018-07-27T18:17:33.548Z,7.83
2018-07-27T18:20:02.406Z,6.47
2018-07-27T18:22:31.090Z,6.37
2018-07-27T18:24:59.789Z,6.63
2018-07-27T18:27:28.536Z,6.70
2018-07-27T18:29:57.205Z,7.70
2018-07-27T18:32:25.878Z,6.67
2018-07-27T18:34:54.594Z,7.67
2018-07-27T18:37:23.256Z,7.87
2018-07-27T18:39:51.905Z,7.20
2018-07-27T18:42:20.547Z,6.57
2018-07-27T18:44:49.156Z,7.73
2018-07-27T18:47:17.803Z,6.90
2018-07-27T18:49:46.489Z,7.00
2018-07-27T18:52:15.144Z,8.47
2018-07-27T18:54:43.768Z,7.27
2018-07-27T18:57:12.401Z,7.33
2018-07-27T18:59:41.032Z,7.90
2018-07-27T19:02:09.728Z,8.23
2018-07-27T19:04:38.364Z,8.23
2018-07-27T19:07:09.138Z,7.83
2018-07-27T19:09:38.397Z,7.60
2018-07-27T19:12:07.076Z,10.67
2018-07-27T19:14:35.809Z,7.13
2018-07-27T19:17:04.445Z,7.97
2018-07-27T19:19:33.048Z,8.03
2018-07-27T19:22:01.719Z,7.80
2018-07-27T19:24:30.407Z,7.47
2018-07-27T19:26:59.064Z,7.70
2018-07-27T19:29:27.355Z,8.03
2018-07-27T19:31:55.964Z,10.13
2018-07-27T19:34:25.525Z,9.27
2018-07-27T19:36:54.157Z,7.50
2018-07-27T19:39:22.755Z,7.10
2018-07-27T19:41:51.364Z,7.40
2018-07-27T19:44:20.041Z,8.10
2018-07-27T19:46:48.667Z,8.87
2018-07-27T19:49:17.269Z,9.37
2018-07-27T19:51:45.867Z,7.33
2018-07-27T19:54:14.494Z,7.73
2018-07-27T19:56:43.146Z,8.50
2018-07-27T19:59:11.788Z,8.60
2018-07-27T20:01:40.376Z,10.33
2018-07-27T20:04:09.000Z,8.70
2018-07-27T20:06:37.647Z,8.67
2018-07-27T20:09:08.483Z,7.33
2018-07-27T20:11:37.129Z,7.60
2018-07-27T20:14:05.797Z,8.23
2018-07-27T20:16:34.437Z,8.30
2018-07-27T20:19:03.040Z,9.50
2018-07-27T20:21:31.694Z,8.77
2018-07-27T20:24:00.441Z,7.87
2018-07-27T20:26:29.113Z,9.27
2018-07-27T20:28:57.811Z,8.47
2018-07-27T20:31:26.447Z,7.63
2018-07-27T20:33:55.455Z,8.20
2018-07-27T20:36:24.332Z,7.07
2018-07-27T20:38:52.939Z,7.67
2018-07-27T20:41:21.607Z,8.00
2018-07-27T20:43:50.227Z,8.13
2018-07-27T20:46:18.909Z,9.17
2018-07-27T20:48:47.628Z,8.20
2018-07-27T20:51:16.356Z,8.30
2018-07-27T20:53:44.992Z,7.83
2018-07-27T20:56:13.583Z,8.57
2018-07-27T20:58:42.220Z,8.53
2018-07-27T21:01:10.839Z,8.47
2018-07-27T21:03:39.456Z,8.30
2018-07-27T21:06:08.084Z,10.33
2018-07-27T21:08:36.711Z,7.93
2018-07-27T21:11:05.367Z,8.53
2018-07-27T21:13:33.977Z,8.10
2018-07-27T21:16:02.601Z,8.10
2018-07-27T21:18:31.204Z,7.80
2018-07-27T21:20:59.802Z,8.60
2018-07-27T21:23:28.400Z,8.23
2018-07-27T21:25:57.008Z,8.00
2018-07-27T21:28:25.627Z,8.37
2018-07-27T21:30:54.344Z,8.77
2018-07-27T21:33:22.959Z,8.20
2018-07-27T21:35:51.564Z,8.57
2018-07-27T21:38:20.156Z,8.00
2018-07-27T21:40:48.766Z,8.57
2018-07-27T21:43:17.438Z,9.00
2018-07-27T21:45:46.104Z,9.53
2018-07-27T21:48:14.688Z,9.30
2018-07-27T21:50:43.288Z,8.63
2018-07-27T21:53:11.905Z,8.57
2018-07-27T21:55:40.499Z,8.23
2018-07-27T21:58:09.128Z,9.03
2018-07-27T22:00:37.780Z,8.50
2018-07-27T22:03:06.504Z,8.50
2018-07-27T22:05:35.280Z,8.87
2018-07-27T22:08:04.025Z,9.00
2018-07-27T22:10:32.700Z,9.37
2018-07-27T22:13:01.339Z,9.00
2018-07-27T22:15:30.013Z,9.80
2018-07-27T22:17:58.651Z,9.03
2018-07-27T22:20:27.331Z,10.03
2018-07-27T22:22:55.972Z,8.63
2018-07-27T22:25:24.612Z,8.20
2018-07-27T22:27:53.208Z,9.40
2018-07-27T22:30:21.835Z,9.23
2018-07-27T22:32:50.504Z,9.10
2018-07-27T22:35:19.145Z,9.00
2018-07-27T22:37:47.763Z,9.33
2018-07-27T22:40:16.367Z,9.93
2018-07-27T22:42:44.993Z,12.17
2018-07-27T22:45:13.607Z,9.47
2018-07-27T22:47:42.212Z,9.83
2018-07-27T22:50:10.854Z,9.60
2018-07-27T22:52:40.541Z,9.57
2018-07-27T22:55:12.264Z,9.20
2018-07-27T22:57:41.887Z,8.53
2018-07-27T23:00:12.641Z,8.67
2018-07-27T23:02:41.808Z,9.00
2018-07-27T23:05:11.212Z,9.23
2018-07-27T23:07:39.837Z,9.40
2018-07-27T23:10:09.920Z,8.97
2018-07-27T23:12:38.697Z,8.47
2018-07-27T23:15:11.749Z,9.00
2018-07-27T23:17:40.672Z,9.80
2018-07-27T23:20:13.931Z,8.73
2018-07-27T23:22:43.409Z,11.03
2018-07-27T23:25:12.158Z,9.23
2018-07-27T23:27:43.749Z,10.10
2018-07-27T23:30:13.677Z,11.03
2018-07-27T23:32:45.459Z,9.40
2018-07-27T23:35:14.309Z,10.10
2018-07-27T23:37:43.313Z,9.37
2018-07-27T23:40:11.938Z,9.37
2018-07-27T23:42:41.424Z,11.97
2018-07-27T23:45:10.105Z,10.37
2018-07-27T23:47:38.832Z,9.03
2018-07-27T23:50:08.948Z,9.33
2018-07-27T23:52:37.655Z,9.43
2018-07-27T23:55:06.504Z,9.23
2018-07-27T23:57:35.851Z,9.60
